sensor_id;sensor_type;location;lat;lon;timestamp;temperature;humidity
10722;DHT22;5412;59.450;18.124;2023-03-03T00:00:58;6.00;99.90
10722;DHT22;5412;59.450;18.124;2023-03-03T00:03:25;6.00;99.90
10722;DHT22;5412;59.450;18.124;2023-03-03T00:05:57;5.90;99.90
10722;DHT22;5412;59.450;18.124;2023-03-03T00:08:23;5.80;99.90
10722;DHT22;5412;59.450;18.124;2023-03-03T00:10:50;5.80;99.90
10722;DHT22;5412;59.450;18.124;2023-03-03T00:13:18;5.80;99.90
10722;DHT22;5412;59.450;18.124;2023-03-03T00:15:44;5.80;99.90
10722;DHT22;5412;59.450;18.124;2023-03-03T00:18:33;5.80;99.90
10722;DHT22;5412;59.450;18.124;2023-03-03T00:21:01;5.70;99.90
10722;DHT22;5412;59.450;18.124;2023-03-03T00:23:39;5.70;99.90
10722;DHT22;5412;59.450;18.124;2023-03-03T00:26:21;5.70;99.90
10722;DHT22;5412;59.450;18.124;2023-03-03T00:28:50;5.70;99.90
10722;DHT22;5412;59.450;18.124;2023-03-03T00:31:26;5.60;99.90
10722;DHT22;5412;59.450;18.124;2023-03-03T00:33:54;5.60;99.90
10722;DHT22;5412;59.450;18.124;2023-03-03T00:36:38;5.60;99.90
10722;DHT22;5412;59.450;18.124;2023-03-03T00:41:43;5.60;99.90
10722;DHT22;5412;59.450;18.124;2023-03-03T00:44:41;5.60;99.90
10722;DHT22;5412;59.450;18.124;2023-03-03T00:47:39;5.60;99.90
10722;DHT22;5412;59.450;18.124;2023-03-03T00:52:38;5.60;99.90
10722;DHT22;5412;59.450;18.124;2023-03-03T00:55:05;5.50;99.90
10722;DHT22;5412;59.450;18.124;2023-03-03T00:57:32;5.60;99.90
10722;DHT22;5412;59.450;18.124;2023-03-03T00:59:57;5.60;99.90
10722;DHT22;5412;59.450;18.124;2023-03-03T01:02:23;5.50;99.90
10722;DHT22;5412;59.450;18.124;2023-03-03T01:04:51;5.50;99.90
10722;DHT22;5412;59.450;18.124;2023-03-03T01:07:18;5.20;99.90
10722;DHT22;5412;59.450;18.124;2023-03-03T01:09:44;5.50;99.90
10722;DHT22;5412;59.450;18.124;2023-03-03T01:12:10;5.50;99.90
10722;DHT22;5412;59.450;18.124;2023-03-03T01:14:37;5.40;99.90
10722;DHT22;5412;59.450;18.124;2023-03-03T01:17:03;5.30;99.90
10722;DHT22;5412;59.450;18.124;2023-03-03T01:19:29;5.30;99.90
10722;DHT22;5412;59.450;18.124;2023-03-03T01:21:54;5.20;99.90
10722;DHT22;5412;59.450;18.124;2023-03-03T01:24:20;5.20;99.90
10722;DHT22;5412;59.450;18.124;2023-03-03T01:26:46;5.10;99.90
10722;DHT22;5412;59.450;18.124;2023-03-03T01:29:12;5.00;99.90
10722;DHT22;5412;59.450;18.124;2023-03-03T01:31:37;5.00;99.90
10722;DHT22;5412;59.450;18.124;2023-03-03T01:34:03;5.10;99.90
10722;DHT22;5412;59.450;18.124;2023-03-03T01:36:29;5.00;99.90
10722;DHT22;5412;59.450;18.124;2023-03-03T01:38:55;4.90;99.90
10722;DHT22;5412;59.450;18.124;2023-03-03T01:41:21;5.20;99.90
10722;DHT22;5412;59.450;18.124;2023-03-03T01:43:48;4.90;99.90
10722;DHT22;5412;59.450;18.124;2023-03-03T01:49:34;4.90;99.90
10722;DHT22;5412;59.450;18.124;2023-03-03T01:52:04;4.80;99.90
10722;DHT22;5412;59.450;18.124;2023-03-03T01:54:41;4.80;99.90
10722;DHT22;5412;59.450;18.124;2023-03-03T01:57:15;4.90;99.90
10722;DHT22;5412;59.450;18.124;2023-03-03T01:59:47;4.90;99.90
10722;DHT22;5412;59.450;18.124;2023-03-03T02:02:14;4.80;99.90
10722;DHT22;5412;59.450;18.124;2023-03-03T02:04:40;4.70;99.90
10722;DHT22;5412;59.450;18.124;2023-03-03T02:07:08;4.80;99.90
10722;DHT22;5412;59.450;18.124;2023-03-03T02:12:25;4.70;99.90
10722;DHT22;5412;59.450;18.124;2023-03-03T02:14:52;4.70;99.90
10722;DHT22;5412;59.450;18.124;2023-03-03T02:17:18;4.70;99.90
10722;DHT22;5412;59.450;18.124;2023-03-03T02:23:00;4.70;99.90
10722;DHT22;5412;59.450;18.124;2023-03-03T02:28:19;4.90;99.90
10722;DHT22;5412;59.450;18.124;2023-03-03T02:30:45;4.80;99.90
10722;DHT22;5412;59.450;18.124;2023-03-03T02:33:11;4.80;99.90
10722;DHT22;5412;59.450;18.124;2023-03-03T02:35:39;4.90;99.90
10722;DHT22;5412;59.450;18.124;2023-03-03T02:38:25;4.90;99.90
10722;DHT22;5412;59.450;18.124;2023-03-03T02:41:12;4.90;99.90
10722;DHT22;5412;59.450;18.124;2023-03-03T02:44:04;4.90;99.90
10722;DHT22;5412;59.450;18.124;2023-03-03T02:46:34;5.00;99.90
10722;DHT22;5412;59.450;18.124;2023-03-03T02:49:01;4.90;99.90
10722;DHT22;5412;59.450;18.124;2023-03-03T02:51:27;4.80;99.90
10722;DHT22;5412;59.450;18.124;2023-03-03T02:53:53;4.80;99.90
10722;DHT22;5412;59.450;18.124;2023-03-03T02:56:19;4.70;99.90
10722;DHT22;5412;59.450;18.124;2023-03-03T02:58:44;4.70;99.90
10722;DHT22;5412;59.450;18.124;2023-03-03T03:01:10;4.80;99.90
10722;DHT22;5412;59.450;18.124;2023-03-03T03:03:36;4.80;99.90
10722;DHT22;5412;59.450;18.124;2023-03-03T03:06:02;4.70;99.90
10722;DHT22;5412;59.450;18.124;2023-03-03T03:08:28;4.70;99.90
10722;DHT22;5412;59.450;18.124;2023-03-03T03:10:54;4.70;99.90
10722;DHT22;5412;59.450;18.124;2023-03-03T03:13:22;4.80;99.90
10722;DHT22;5412;59.450;18.124;2023-03-03T03:15:48;4.70;99.90
10722;DHT22;5412;59.450;18.124;2023-03-03T03:18:14;4.70;99.90
10722;DHT22;5412;59.450;18.124;2023-03-03T03:20:40;4.70;99.90
10722;DHT22;5412;59.450;18.124;2023-03-03T03:23:07;4.70;99.90
10722;DHT22;5412;59.450;18.124;2023-03-03T03:25:33;4.70;99.90
10722;DHT22;5412;59.450;18.124;2023-03-03T03:27:59;4.60;99.90
10722;DHT22;5412;59.450;18.124;2023-03-03T03:30:25;4.60;99.90
10722;DHT22;5412;59.450;18.124;2023-03-03T03:32:50;4.70;99.90
10722;DHT22;5412;59.450;18.124;2023-03-03T03:35:16;4.70;99.90
10722;DHT22;5412;59.450;18.124;2023-03-03T03:37:43;4.60;99.90
10722;DHT22;5412;59.450;18.124;2023-03-03T03:40:10;4.60;99.90
10722;DHT22;5412;59.450;18.124;2023-03-03T03:42:36;4.40;99.90
10722;DHT22;5412;59.450;18.124;2023-03-03T03:45:04;4.40;99.90
10722;DHT22;5412;59.450;18.124;2023-03-03T03:47:30;4.40;99.90
10722;DHT22;5412;59.450;18.124;2023-03-03T03:49:56;4.30;99.90
10722;DHT22;5412;59.450;18.124;2023-03-03T03:52:21;4.30;99.90
10722;DHT22;5412;59.450;18.124;2023-03-03T03:54:47;4.30;99.90
10722;DHT22;5412;59.450;18.124;2023-03-03T03:57:13;4.20;99.90
10722;DHT22;5412;59.450;18.124;2023-03-03T03:59:39;4.20;99.90
10722;DHT22;5412;59.450;18.124;2023-03-03T04:02:04;4.20;99.90
10722;DHT22;5412;59.450;18.124;2023-03-03T04:04:30;4.20;99.90
10722;DHT22;5412;59.450;18.124;2023-03-03T04:06:56;4.20;99.90
10722;DHT22;5412;59.450;18.124;2023-03-03T04:09:22;4.20;99.90
10722;DHT22;5412;59.450;18.124;2023-03-03T04:11:47;4.10;99.90
10722;DHT22;5412;59.450;18.124;2023-03-03T04:14:13;4.20;99.90
10722;DHT22;5412;59.450;18.124;2023-03-03T04:16:39;4.10;99.90
10722;DHT22;5412;59.450;18.124;2023-03-03T04:19:04;4.10;99.90
10722;DHT22;5412;59.450;18.124;2023-03-03T04:21:30;4.10;99.90
10722;DHT22;5412;59.450;18.124;2023-03-03T04:23:56;4.00;99.90
10722;DHT22;5412;59.450;18.124;2023-03-03T04:26:22;4.00;99.90
10722;DHT22;5412;59.450;18.124;2023-03-03T04:28:47;4.00;99.90
10722;DHT22;5412;59.450;18.124;2023-03-03T04:31:13;4.00;99.90
10722;DHT22;5412;59.450;18.124;2023-03-03T04:33:41;4.00;99.90
10722;DHT22;5412;59.450;18.124;2023-03-03T04:36:07;3.90;99.90
10722;DHT22;5412;59.450;18.124;2023-03-03T04:38:32;4.00;99.90
10722;DHT22;5412;59.450;18.124;2023-03-03T04:40:58;4.00;99.90
10722;DHT22;5412;59.450;18.124;2023-03-03T04:43:24;4.00;99.90
10722;DHT22;5412;59.450;18.124;2023-03-03T04:45:50;3.90;99.90
10722;DHT22;5412;59.450;18.124;2023-03-03T04:48:15;3.90;99.90
10722;DHT22;5412;59.450;18.124;2023-03-03T04:50:41;3.90;99.90
10722;DHT22;5412;59.450;18.124;2023-03-03T04:53:08;3.90;99.90
10722;DHT22;5412;59.450;18.124;2023-03-03T04:55:36;3.90;99.90
10722;DHT22;5412;59.450;18.124;2023-03-03T04:58:03;3.80;99.90
10722;DHT22;5412;59.450;18.124;2023-03-03T05:00:29;3.90;99.90
10722;DHT22;5412;59.450;18.124;2023-03-03T05:02:54;3.70;99.90
10722;DHT22;5412;59.450;18.124;2023-03-03T05:05:20;3.80;99.90
10722;DHT22;5412;59.450;18.124;2023-03-03T05:07:46;3.90;99.90
10722;DHT22;5412;59.450;18.124;2023-03-03T05:10:12;3.90;99.90
10722;DHT22;5412;59.450;18.124;2023-03-03T05:12:38;3.80;99.90
10722;DHT22;5412;59.450;18.124;2023-03-03T05:15:04;3.80;99.90
10722;DHT22;5412;59.450;18.124;2023-03-03T05:17:30;3.70;99.90
10722;DHT22;5412;59.450;18.124;2023-03-03T05:19:56;3.60;99.90
10722;DHT22;5412;59.450;18.124;2023-03-03T05:22:22;3.60;99.90
10722;DHT22;5412;59.450;18.124;2023-03-03T05:24:48;3.70;99.90
10722;DHT22;5412;59.450;18.124;2023-03-03T05:27:15;3.80;99.90
10722;DHT22;5412;59.450;18.124;2023-03-03T05:29:41;3.70;99.90
10722;DHT22;5412;59.450;18.124;2023-03-03T05:32:07;3.70;99.90
10722;DHT22;5412;59.450;18.124;2023-03-03T05:34:32;3.80;99.90
10722;DHT22;5412;59.450;18.124;2023-03-03T05:36:58;3.80;99.90
10722;DHT22;5412;59.450;18.124;2023-03-03T05:39:24;3.80;99.90
10722;DHT22;5412;59.450;18.124;2023-03-03T05:41:50;3.80;99.90
10722;DHT22;5412;59.450;18.124;2023-03-03T05:44:15;3.80;99.90
10722;DHT22;5412;59.450;18.124;2023-03-03T05:46:43;3.80;99.90
10722;DHT22;5412;59.450;18.124;2023-03-03T05:49:10;3.80;99.90
10722;DHT22;5412;59.450;18.124;2023-03-03T05:51:35;3.80;99.90
10722;DHT22;5412;59.450;18.124;2023-03-03T05:54:01;3.70;99.90
10722;DHT22;5412;59.450;18.124;2023-03-03T05:56:27;3.60;99.90
10722;DHT22;5412;59.450;18.124;2023-03-03T05:58:52;3.60;99.90
10722;DHT22;5412;59.450;18.124;2023-03-03T06:01:18;3.70;99.90
10722;DHT22;5412;59.450;18.124;2023-03-03T06:03:44;3.70;99.90
10722;DHT22;5412;59.450;18.124;2023-03-03T06:06:10;3.70;99.90
10722;DHT22;5412;59.450;18.124;2023-03-03T06:08:36;3.70;99.90
10722;DHT22;5412;59.450;18.124;2023-03-03T06:11:02;3.70;99.90
10722;DHT22;5412;59.450;18.124;2023-03-03T06:13:28;3.70;99.90
10722;DHT22;5412;59.450;18.124;2023-03-03T06:15:54;3.60;99.90
10722;DHT22;5412;59.450;18.124;2023-03-03T06:18:20;3.60;99.90
10722;DHT22;5412;59.450;18.124;2023-03-03T06:20:50;3.60;99.90
10722;DHT22;5412;59.450;18.124;2023-03-03T06:23:16;3.70;99.90
10722;DHT22;5412;59.450;18.124;2023-03-03T06:25:42;3.70;99.90
10722;DHT22;5412;59.450;18.124;2023-03-03T06:28:08;3.60;99.90
10722;DHT22;5412;59.450;18.124;2023-03-03T06:30:34;3.70;99.90
10722;DHT22;5412;59.450;18.124;2023-03-03T06:33:00;3.70;99.90
10722;DHT22;5412;59.450;18.124;2023-03-03T06:35:26;3.70;99.90
10722;DHT22;5412;59.450;18.124;2023-03-03T06:37:52;3.80;99.90
10722;DHT22;5412;59.450;18.124;2023-03-03T06:40:18;3.70;99.90
10722;DHT22;5412;59.450;18.124;2023-03-03T06:42:44;3.80;99.90
10722;DHT22;5412;59.450;18.124;2023-03-03T06:45:10;3.80;99.90
10722;DHT22;5412;59.450;18.124;2023-03-03T06:47:36;3.80;99.90
10722;DHT22;5412;59.450;18.124;2023-03-03T06:50:01;3.90;99.90
10722;DHT22;5412;59.450;18.124;2023-03-03T06:52:27;4.00;99.90
10722;DHT22;5412;59.450;18.124;2023-03-03T06:54:56;3.90;99.90
10722;DHT22;5412;59.450;18.124;2023-03-03T06:57:29;3.90;99.90
10722;DHT22;5412;59.450;18.124;2023-03-03T07:00:05;4.00;99.90
10722;DHT22;5412;59.450;18.124;2023-03-03T07:02:34;4.00;99.90
10722;DHT22;5412;59.450;18.124;2023-03-03T07:05:00;4.00;99.90
10722;DHT22;5412;59.450;18.124;2023-03-03T07:07:26;4.10;99.90
10722;DHT22;5412;59.450;18.124;2023-03-03T07:09:54;4.10;99.90
10722;DHT22;5412;59.450;18.124;2023-03-03T07:12:25;4.10;99.90
10722;DHT22;5412;59.450;18.124;2023-03-03T07:14:57;4.20;99.90
10722;DHT22;5412;59.450;18.124;2023-03-03T07:17:26;4.20;99.90
10722;DHT22;5412;59.450;18.124;2023-03-03T07:19:52;4.10;99.90
10722;DHT22;5412;59.450;18.124;2023-03-03T07:22:26;4.30;99.90
10722;DHT22;5412;59.450;18.124;2023-03-03T07:24:54;4.40;99.90
10722;DHT22;5412;59.450;18.124;2023-03-03T07:27:27;4.40;99.90
10722;DHT22;5412;59.450;18.124;2023-03-03T07:32:42;4.50;99.90
10722;DHT22;5412;59.450;18.124;2023-03-03T07:37:54;4.50;99.90
10722;DHT22;5412;59.450;18.124;2023-03-03T07:40:40;4.60;99.90
10722;DHT22;5412;59.450;18.124;2023-03-03T07:43:36;4.70;99.90
10722;DHT22;5412;59.450;18.124;2023-03-03T07:46:44;4.80;99.90
10722;DHT22;5412;59.450;18.124;2023-03-03T07:49:33;4.90;99.90
10722;DHT22;5412;59.450;18.124;2023-03-03T07:52:00;4.90;99.90
10722;DHT22;5412;59.450;18.124;2023-03-03T07:54:39;5.00;99.90
10722;DHT22;5412;59.450;18.124;2023-03-03T07:57:13;5.10;99.90
10722;DHT22;5412;59.450;18.124;2023-03-03T08:02:39;5.20;99.90
10722;DHT22;5412;59.450;18.124;2023-03-03T08:08:33;5.40;99.90
10722;DHT22;5412;59.450;18.124;2023-03-03T08:11:02;5.50;99.90
10722;DHT22;5412;59.450;18.124;2023-03-03T08:23:41;5.50;99.90
10722;DHT22;5412;59.450;18.124;2023-03-03T08:26:07;5.30;99.90
10722;DHT22;5412;59.450;18.124;2023-03-03T08:28:34;5.40;99.90
10722;DHT22;5412;59.450;18.124;2023-03-03T08:31:00;5.50;99.90
10722;DHT22;5412;59.450;18.124;2023-03-03T08:33:26;5.40;99.90
10722;DHT22;5412;59.450;18.124;2023-03-03T08:35:51;5.50;99.90
10722;DHT22;5412;59.450;18.124;2023-03-03T08:38:20;5.50;99.90
10722;DHT22;5412;59.450;18.124;2023-03-03T08:40:47;5.50;99.90
10722;DHT22;5412;59.450;18.124;2023-03-03T08:43:13;5.50;99.90
10722;DHT22;5412;59.450;18.124;2023-03-03T08:45:43;5.60;99.90
10722;DHT22;5412;59.450;18.124;2023-03-03T08:48:09;5.60;99.90
10722;DHT22;5412;59.450;18.124;2023-03-03T08:50:36;5.70;99.90
10722;DHT22;5412;59.450;18.124;2023-03-03T08:53:03;5.80;99.90
10722;DHT22;5412;59.450;18.124;2023-03-03T08:55:29;5.80;99.90
10722;DHT22;5412;59.450;18.124;2023-03-03T08:57:55;5.90;99.90
10722;DHT22;5412;59.450;18.124;2023-03-03T09:00:22;5.80;99.90
10722;DHT22;5412;59.450;18.124;2023-03-03T09:02:49;5.90;99.90
10722;DHT22;5412;59.450;18.124;2023-03-03T09:05:16;6.00;99.90
10722;DHT22;5412;59.450;18.124;2023-03-03T09:07:43;6.10;99.90
10722;DHT22;5412;59.450;18.124;2023-03-03T09:10:12;6.00;99.90
10722;DHT22;5412;59.450;18.124;2023-03-03T09:12:43;6.10;99.90
10722;DHT22;5412;59.450;18.124;2023-03-03T09:17:38;6.40;99.90
10722;DHT22;5412;59.450;18.124;2023-03-03T09:22:43;6.50;99.90
10722;DHT22;5412;59.450;18.124;2023-03-03T09:25:28;6.40;99.90
10722;DHT22;5412;59.450;18.124;2023-03-03T09:27:56;6.40;99.90
10722;DHT22;5412;59.450;18.124;2023-03-03T09:32:52;6.50;99.90
10722;DHT22;5412;59.450;18.124;2023-03-03T09:35:37;6.60;99.90
10722;DHT22;5412;59.450;18.124;2023-03-03T09:38:27;6.50;99.90
10722;DHT22;5412;59.450;18.124;2023-03-03T09:46:43;6.70;99.90
10722;DHT22;5412;59.450;18.124;2023-03-03T09:54:34;6.70;99.90
10722;DHT22;5412;59.450;18.124;2023-03-03T10:03:11;6.90;99.90
10722;DHT22;5412;59.450;18.124;2023-03-03T10:05:54;6.80;99.90
10722;DHT22;5412;59.450;18.124;2023-03-03T10:16:48;6.60;99.90
10722;DHT22;5412;59.450;18.124;2023-03-03T10:19:24;6.40;99.90
10722;DHT22;5412;59.450;18.124;2023-03-03T10:24:28;6.40;99.90
10722;DHT22;5412;59.450;18.124;2023-03-03T10:32:57;6.30;99.90
10722;DHT22;5412;59.450;18.124;2023-03-03T10:38:05;6.10;99.90
10722;DHT22;5412;59.450;18.124;2023-03-03T10:48:47;5.60;99.90
10722;DHT22;5412;59.450;18.124;2023-03-03T10:51:25;5.50;99.90
10722;DHT22;5412;59.450;18.124;2023-03-03T10:54:24;5.30;99.90
10722;DHT22;5412;59.450;18.124;2023-03-03T10:57:29;5.20;99.90
10722;DHT22;5412;59.450;18.124;2023-03-03T11:00:02;4.90;99.90
10722;DHT22;5412;59.450;18.124;2023-03-03T11:08:27;5.00;99.90
10722;DHT22;5412;59.450;18.124;2023-03-03T11:11:15;4.90;99.90
10722;DHT22;5412;59.450;18.124;2023-03-03T11:21:38;4.90;99.90
10722;DHT22;5412;59.450;18.124;2023-03-03T11:27:05;4.80;99.90
10722;DHT22;5412;59.450;18.124;2023-03-03T11:32:29;4.60;99.90
10722;DHT22;5412;59.450;18.124;2023-03-03T11:35:26;4.50;99.90
10722;DHT22;5412;59.450;18.124;2023-03-03T11:37:56;4.40;99.90
10722;DHT22;5412;59.450;18.124;2023-03-03T11:40:27;4.60;99.90
10722;DHT22;5412;59.450;18.124;2023-03-03T11:45:46;4.40;99.90
10722;DHT22;5412;59.450;18.124;2023-03-03T11:48:21;4.50;99.90
10722;DHT22;5412;59.450;18.124;2023-03-03T11:51:16;4.60;99.90
10722;DHT22;5412;59.450;18.124;2023-03-03T11:56:46;4.40;99.90
10722;DHT22;5412;59.450;18.124;2023-03-03T12:05:17;4.40;99.90
10722;DHT22;5412;59.450;18.124;2023-03-03T12:08:22;4.40;99.90
10722;DHT22;5412;59.450;18.124;2023-03-03T12:24:45;4.10;99.90
10722;DHT22;5412;59.450;18.124;2023-03-03T12:30:09;4.00;99.90
10722;DHT22;5412;59.450;18.124;2023-03-03T12:36:34;4.10;99.90
10722;DHT22;5412;59.450;18.124;2023-03-03T12:38:39;4.20;99.90
10722;DHT22;5412;59.450;18.124;2023-03-03T12:41:07;4.30;99.90
10722;DHT22;5412;59.450;18.124;2023-03-03T12:48:44;4.50;99.90
10722;DHT22;5412;59.450;18.124;2023-03-03T12:59:53;4.90;99.90
10722;DHT22;5412;59.450;18.124;2023-03-03T13:05:48;5.10;99.90
10722;DHT22;5412;59.450;18.124;2023-03-03T13:08:24;5.30;99.90
10722;DHT22;5412;59.450;18.124;2023-03-03T13:11:02;5.30;99.90
10722;DHT22;5412;59.450;18.124;2023-03-03T13:16:14;5.40;99.90
10722;DHT22;5412;59.450;18.124;2023-03-03T13:21:45;5.50;99.90
10722;DHT22;5412;59.450;18.124;2023-03-03T13:29:32;5.70;99.90
10722;DHT22;5412;59.450;18.124;2023-03-03T13:32:13;5.80;99.90
10722;DHT22;5412;59.450;18.124;2023-03-03T13:37:41;5.90;99.90
10722;DHT22;5412;59.450;18.124;2023-03-03T13:45:39;6.10;99.90
10722;DHT22;5412;59.450;18.124;2023-03-03T13:53:59;7.80;99.90
10722;DHT22;5412;59.450;18.124;2023-03-03T14:02:06;8.80;99.90
10722;DHT22;5412;59.450;18.124;2023-03-03T14:04:53;9.00;99.90
10722;DHT22;5412;59.450;18.124;2023-03-03T14:10:49;10.90;99.90
10722;DHT22;5412;59.450;18.124;2023-03-03T14:13:27;11.70;97.50
10722;DHT22;5412;59.450;18.124;2023-03-03T14:16:13;11.90;95.30
10722;DHT22;5412;59.450;18.124;2023-03-03T14:21:23;12.70;92.00
10722;DHT22;5412;59.450;18.124;2023-03-03T14:24:17;11.90;91.80
10722;DHT22;5412;59.450;18.124;2023-03-03T14:26:51;11.70;91.90
10722;DHT22;5412;59.450;18.124;2023-03-03T14:31:53;11.70;91.40
10722;DHT22;5412;59.450;18.124;2023-03-03T14:36:49;11.40;92.30
10722;DHT22;5412;59.450;18.124;2023-03-03T14:39:36;10.30;92.30
10722;DHT22;5412;59.450;18.124;2023-03-03T14:42:14;9.40;94.00
10722;DHT22;5412;59.450;18.124;2023-03-03T14:44:54;9.40;94.50
10722;DHT22;5412;59.450;18.124;2023-03-03T14:47:22;8.80;95.30
10722;DHT22;5412;59.450;18.124;2023-03-03T14:49:49;8.40;96.10
10722;DHT22;5412;59.450;18.124;2023-03-03T14:54:49;7.60;97.90
10722;DHT22;5412;59.450;18.124;2023-03-03T14:57:41;7.50;98.80
10722;DHT22;5412;59.450;18.124;2023-03-03T15:02:41;7.30;99.10
10722;DHT22;5412;59.450;18.124;2023-03-03T15:07:54;7.10;99.90
10722;DHT22;5412;59.450;18.124;2023-03-03T15:10:50;6.90;99.90
10722;DHT22;5412;59.450;18.124;2023-03-03T15:16:03;6.70;99.90
10722;DHT22;5412;59.450;18.124;2023-03-03T15:18:31;6.00;99.90
10722;DHT22;5412;59.450;18.124;2023-03-03T15:21:07;6.70;99.90
10722;DHT22;5412;59.450;18.124;2023-03-03T15:23:49;6.70;99.90
10722;DHT22;5412;59.450;18.124;2023-03-03T15:26:23;6.70;99.90
10722;DHT22;5412;59.450;18.124;2023-03-03T15:34:52;6.70;99.90
10722;DHT22;5412;59.450;18.124;2023-03-03T15:40:44;6.70;99.90
10722;DHT22;5412;59.450;18.124;2023-03-03T16:04:35;6.00;99.90
10722;DHT22;5412;59.450;18.124;2023-03-03T16:07:25;6.00;99.90
10722;DHT22;5412;59.450;18.124;2023-03-03T16:18:32;6.00;99.90
10722;DHT22;5412;59.450;18.124;2023-03-03T16:32:00;6.00;99.90
10722;DHT22;5412;59.450;18.124;2023-03-03T16:42:50;5.90;99.90
10722;DHT22;5412;59.450;18.124;2023-03-03T16:45:32;5.90;99.90
10722;DHT22;5412;59.450;18.124;2023-03-03T16:56:22;6.00;99.90
10722;DHT22;5412;59.450;18.124;2023-03-03T16:59:32;6.10;99.90
10722;DHT22;5412;59.450;18.124;2023-03-03T17:14:25;6.10;99.90
10722;DHT22;5412;59.450;18.124;2023-03-03T17:16:46;6.10;99.90
10722;DHT22;5412;59.450;18.124;2023-03-03T17:24:46;6.10;99.90
10722;DHT22;5412;59.450;18.124;2023-03-03T17:34:51;6.10;99.90
10722;DHT22;5412;59.450;18.124;2023-03-03T17:38:01;6.10;99.90
10722;DHT22;5412;59.450;18.124;2023-03-03T17:40:24;6.10;99.90
10722;DHT22;5412;59.450;18.124;2023-03-03T17:45:55;6.10;99.90
10722;DHT22;5412;59.450;18.124;2023-03-03T17:48:46;6.00;99.90
10722;DHT22;5412;59.450;18.124;2023-03-03T18:05:59;6.10;96.40
10722;DHT22;5412;59.450;18.124;2023-03-03T18:19:20;6.70;91.50
10722;DHT22;5412;59.450;18.124;2023-03-03T18:21:55;6.00;90.20
10722;DHT22;5412;59.450;18.124;2023-03-03T18:27:33;5.90;87.40
10722;DHT22;5412;59.450;18.124;2023-03-03T18:49:00;5.60;83.50
10722;DHT22;5412;59.450;18.124;2023-03-03T19:12:53;5.20;86.60
10722;DHT22;5412;59.450;18.124;2023-03-03T19:18:17;5.20;86.50
10722;DHT22;5412;59.450;18.124;2023-03-03T19:20:55;5.20;86.80
10722;DHT22;5412;59.450;18.124;2023-03-03T19:23:45;5.10;86.30
10722;DHT22;5412;59.450;18.124;2023-03-03T19:32:17;4.90;86.10
10722;DHT22;5412;59.450;18.124;2023-03-03T19:40:44;4.90;86.70
10722;DHT22;5412;59.450;18.124;2023-03-03T19:46:49;4.80;87.50
10722;DHT22;5412;59.450;18.124;2023-03-03T19:52:12;4.70;88.40
10722;DHT22;5412;59.450;18.124;2023-03-03T19:55:17;4.60;88.40
10722;DHT22;5412;59.450;18.124;2023-03-03T19:58:14;4.60;88.60
10722;DHT22;5412;59.450;18.124;2023-03-03T20:00:46;4.60;88.40
10722;DHT22;5412;59.450;18.124;2023-03-03T20:06:28;4.50;88.90
10722;DHT22;5412;59.450;18.124;2023-03-03T20:12:01;4.40;89.90
10722;DHT22;5412;59.450;18.124;2023-03-03T20:17:29;4.30;89.50
10722;DHT22;5412;59.450;18.124;2023-03-03T20:23:33;4.30;90.10
10722;DHT22;5412;59.450;18.124;2023-03-03T20:26:30;4.30;89.30
10722;DHT22;5412;59.450;18.124;2023-03-03T20:31:48;4.20;89.20
10722;DHT22;5412;59.450;18.124;2023-03-03T20:45:05;3.60;89.40
10722;DHT22;5412;59.450;18.124;2023-03-03T20:47:41;4.20;90.00
10722;DHT22;5412;59.450;18.124;2023-03-03T20:50:50;4.10;90.20
10722;DHT22;5412;59.450;18.124;2023-03-03T21:01:34;3.90;90.70
10722;DHT22;5412;59.450;18.124;2023-03-03T21:04:30;3.90;90.60
10722;DHT22;5412;59.450;18.124;2023-03-03T21:06:57;3.80;90.70
10722;DHT22;5412;59.450;18.124;2023-03-03T21:09:35;3.90;90.80
10722;DHT22;5412;59.450;18.124;2023-03-03T21:12:10;3.90;91.30
10722;DHT22;5412;59.450;18.124;2023-03-03T21:14:58;3.80;91.20
10722;DHT22;5412;59.450;18.124;2023-03-03T21:17:29;3.80;91.20
10722;DHT22;5412;59.450;18.124;2023-03-03T21:20:25;3.60;91.20
10722;DHT22;5412;59.450;18.124;2023-03-03T21:22:51;3.60;91.20
10722;DHT22;5412;59.450;18.124;2023-03-03T21:28:23;3.40;91.60
10722;DHT22;5412;59.450;18.124;2023-03-03T21:36:05;3.30;92.00
10722;DHT22;5412;59.450;18.124;2023-03-03T21:38:35;3.20;91.90
10722;DHT22;5412;59.450;18.124;2023-03-03T21:41:02;3.10;91.90
10722;DHT22;5412;59.450;18.124;2023-03-03T21:43:37;3.10;92.10
10722;DHT22;5412;59.450;18.124;2023-03-03T21:46:03;3.10;92.20
10722;DHT22;5412;59.450;18.124;2023-03-03T21:48:29;3.10;92.00
10722;DHT22;5412;59.450;18.124;2023-03-03T21:50:54;3.20;92.00
10722;DHT22;5412;59.450;18.124;2023-03-03T21:53:20;3.10;92.00
10722;DHT22;5412;59.450;18.124;2023-03-03T21:55:48;3.00;92.10
10722;DHT22;5412;59.450;18.124;2023-03-03T21:58:18;3.00;92.10
10722;DHT22;5412;59.450;18.124;2023-03-03T22:00:44;3.00;91.70
10722;DHT22;5412;59.450;18.124;2023-03-03T22:03:13;3.00;91.80
10722;DHT22;5412;59.450;18.124;2023-03-03T22:05:45;3.00;92.00
10722;DHT22;5412;59.450;18.124;2023-03-03T22:08:15;2.90;92.40
10722;DHT22;5412;59.450;18.124;2023-03-03T22:10:47;2.90;92.80
10722;DHT22;5412;59.450;18.124;2023-03-03T22:13:16;3.00;92.70
10722;DHT22;5412;59.450;18.124;2023-03-03T22:15:45;2.00;92.50
10722;DHT22;5412;59.450;18.124;2023-03-03T22:18:11;2.90;93.00
10722;DHT22;5412;59.450;18.124;2023-03-03T22:20:37;2.80;92.70
10722;DHT22;5412;59.450;18.124;2023-03-03T22:23:03;2.80;93.10
10722;DHT22;5412;59.450;18.124;2023-03-03T22:25:29;2.80;93.20
10722;DHT22;5412;59.450;18.124;2023-03-03T22:27:55;2.80;93.70
10722;DHT22;5412;59.450;18.124;2023-03-03T22:30:21;2.70;93.20
10722;DHT22;5412;59.450;18.124;2023-03-03T22:32:46;2.60;93.20
10722;DHT22;5412;59.450;18.124;2023-03-03T22:35:16;2.60;93.10
10722;DHT22;5412;59.450;18.124;2023-03-03T22:37:43;2.60;93.10
10722;DHT22;5412;59.450;18.124;2023-03-03T22:40:09;2.60;93.20
10722;DHT22;5412;59.450;18.124;2023-03-03T22:42:35;2.50;92.90
10722;DHT22;5412;59.450;18.124;2023-03-03T22:45:01;2.50;93.00
10722;DHT22;5412;59.450;18.124;2023-03-03T22:47:27;2.50;93.00
10722;DHT22;5412;59.450;18.124;2023-03-03T22:49:52;2.50;93.20
10722;DHT22;5412;59.450;18.124;2023-03-03T22:52:18;2.40;92.90
10722;DHT22;5412;59.450;18.124;2023-03-03T22:54:44;2.40;93.20
10722;DHT22;5412;59.450;18.124;2023-03-03T22:57:10;2.40;93.40
10722;DHT22;5412;59.450;18.124;2023-03-03T22:59:35;2.40;93.20
10722;DHT22;5412;59.450;18.124;2023-03-03T23:02:01;2.40;93.30
10722;DHT22;5412;59.450;18.124;2023-03-03T23:04:28;2.40;93.30
10722;DHT22;5412;59.450;18.124;2023-03-03T23:06:53;2.30;93.30
10722;DHT22;5412;59.450;18.124;2023-03-03T23:09:21;2.30;93.50
10722;DHT22;5412;59.450;18.124;2023-03-03T23:11:47;2.40;93.20
10722;DHT22;5412;59.450;18.124;2023-03-03T23:14:13;2.30;93.40
10722;DHT22;5412;59.450;18.124;2023-03-03T23:16:39;2.30;93.50
10722;DHT22;5412;59.450;18.124;2023-03-03T23:19:04;2.30;93.50
10722;DHT22;5412;59.450;18.124;2023-03-03T23:21:30;2.30;93.50
10722;DHT22;5412;59.450;18.124;2023-03-03T23:23:56;2.20;93.80
10722;DHT22;5412;59.450;18.124;2023-03-03T23:26:22;2.10;93.70
10722;DHT22;5412;59.450;18.124;2023-03-03T23:28:47;2.00;93.90